LiveATC.Net - Listen to live air traffic control over the Internet! Contact LiveATC.net for advertising information


ICAO: SA15  IATA: EZP   Airport: Ezpeleta Airport
City: Ezpeleta
Country: Argentina   Continent: South America
SABE METAR Weather: SABE 301600Z 36007KT 9999 SCT045 BKN200 22/12 Q1011
SA15 Flight Activity (FlightAware)
SA15 CTAF/Unicom
Feed Status: DOWN
Last heard on: 2014-10-30 11:52:02 (0 days 4 hours 52 minutes ago)
SA15 CTAF/Unicom Audio Archives
FacilityFrequency
Ezpeleta Aerodrome123.500


NOTICE

Unauthorized use prohibited. See LiveATC.net Terms of Service


Find LiveATC Audio Streams


Airport/ARTCC Code

Frequency
(e.g., 124.400, 128.75)
Site-wide search

Browse LiveATC Feeds
LiveATC Coverage Map
Top 50 LiveATC Feeds
Bad Weather Areas

LiveATC FAQ
Offer a LiveATC Feed
Contact LiveATC.net
Press Inquiries

LiveATC on iPhone
LiveATC on Android

LiveATC Mobile
(Mobile browser)

ATC Audio Archives
Interesting Recordings

LiveATC Forums


Home Page
About LiveATC.net
Make a Donation
LiveATC Bookstore

Terms of Use
Privacy Policy

ATC/Radar Sites
U.S. ARTCC Freqs
Canadian Air Freqs

AIRMETs/SIGMETs

FAA Airport Status
Nat'l Airspace Status
Arrival Demand Charts


Server Software By:
Icecast.org
Liquidsoap

Please make a donation to help us keep growing!